Time;durP1;ratioP1;P1;durP2;ratioP2;P2;SDS_P1;SDS_P2;PMS_P1;PMS_P2;Temp;Humidity;BMP_temperature;BMP_pressure;BME280_temperature;BME280_humidity;BME280_pressure;Samples;Min_cycle;Max_cycle;Signal;HPM_P1;HPM_P2
2022/03/07 00:00:41;;;;;;;;;;;-0.40;77.50;;;;;;5037963;28;19944;-72
2022/03/07 00:03:07;;;;;;;;;;;-0.40;78.00;;;;;;5037572;28;20015;-72
2022/03/07 00:05:32;;;;;;;;;;;-0.40;77.50;;;;;;5038051;28;19923;-72
2022/03/07 00:07:58;;;;;;;;;;;-0.40;77.20;;;;;;5040731;28;19952;-72
2022/03/07 00:10:23;;;;;;;;;;;-0.40;77.80;;;;;;5034958;28;19913;-72
2022/03/07 00:12:49;;;;;;;;;;;-0.40;78.00;;;;;;5034653;28;20393;-72
2022/03/07 00:15:15;;;;;;;;;;;-0.40;78.70;;;;;;5034458;28;19909;-72
2022/03/07 00:17:41;;;;;;;;;;;-0.50;79.00;;;;;;5042701;28;19917;-72
2022/03/07 00:20:07;;;;;;;;;;;-0.50;78.60;;;;;;5040541;28;20016;-72
2022/03/07 00:22:33;;;;;;;;;;;-0.50;79.00;;;;;;5039600;28;20271;-72
2022/03/07 00:24:58;;;;;;;;;;;-0.60;78.90;;;;;;5033997;28;20019;-72
2022/03/07 00:27:24;;;;;;;;;;;-0.60;79.30;;;;;;5033580;28;19909;-72
2022/03/07 00:29:49;;;;;;;;;;;-0.60;78.90;;;;;;5030525;28;19913;-72
2022/03/07 00:32:15;;;;;;;;;;;-0.60;79.20;;;;;;5045856;28;20389;-72
2022/03/07 00:34:40;;;;;;;;;;;-0.50;78.80;;;;;;5035287;28;19909;-72
2022/03/07 00:37:06;;;;;;;;;;;-0.60;79.40;;;;;;5034477;28;20332;-72
2022/03/07 00:39:31;;;;;;;;;;;-0.60;79.60;;;;;;5034235;28;20354;-72
2022/03/07 00:41:57;;;;;;;;;;;-0.60;80.20;;;;;;5034081;28;20043;-72
2022/03/07 00:44:22;;;;;;;;;;;-0.60;80.40;;;;;;5033885;28;19920;-72
2022/03/07 00:46:48;;;;;;;;;;;-0.70;80.40;;;;;;5034145;28;20355;-72
2022/03/07 00:49:13;;;;;;;;;;;-0.60;80.70;;;;;;5034097;28;19916;-72
2022/03/07 00:51:39;;;;;;;;;;;-0.70;80.50;;;;;;5034053;28;19909;-72
2022/03/07 00:54:05;;;;;;;;;;;-0.70;81.10;;;;;;5038270;28;20475;-72
2022/03/07 00:56:30;;;;;;;;;;;-0.70;80.80;;;;;;5034077;28;20182;-72
2022/03/07 00:58:56;;;;;;;;;;;-0.70;81.00;;;;;;5033760;28;19913;-72
2022/03/07 01:01:21;;;;;;;;;;;-0.70;82.00;;;;;;5042844;28;20373;-72
2022/03/07 01:03:47;;;;;;;;;;;-0.70;81.60;;;;;;5046426;28;19916;-72
2022/03/07 01:06:13;;;;;;;;;;;-0.80;81.30;;;;;;5033954;28;19917;-71
2022/03/07 01:08:39;;;;;;;;;;;-0.80;81.90;;;;;;5033715;28;19917;-72
2022/03/07 01:11:05;;;;;;;;;;;-0.80;81.80;;;;;;5033738;28;19909;-71
2022/03/07 01:13:30;;;;;;;;;;;-0.80;81.70;;;;;;5033391;28;19909;-72
2022/03/07 01:15:56;;;;;;;;;;;-0.80;81.40;;;;;;5035345;28;19920;-72
2022/03/07 01:18:21;;;;;;;;;;;-0.80;81.70;;;;;;5033520;28;20442;-72
2022/03/07 01:20:47;;;;;;;;;;;-0.90;82.50;;;;;;5033602;28;19909;-72
2022/03/07 01:23:12;;;;;;;;;;;-1.00;82.70;;;;;;5033153;28;19963;-72
2022/03/07 01:25:38;;;;;;;;;;;-1.00;83.40;;;;;;5033876;28;20328;-72
2022/03/07 01:28:03;;;;;;;;;;;-1.00;83.50;;;;;;5033233;28;19909;-72
2022/03/07 01:30:29;;;;;;;;;;;-1.00;83.40;;;;;;5040709;28;19912;-72
2022/03/07 01:32:54;;;;;;;;;;;-1.00;83.90;;;;;;5036629;28;19909;-72
2022/03/07 01:35:20;;;;;;;;;;;-0.90;83.20;;;;;;5038434;28;20283;-72
2022/03/07 01:37:46;;;;;;;;;;;-1.00;83.70;;;;;;5033158;28;19928;-72
2022/03/07 01:40:12;;;;;;;;;;;-1.10;84.80;;;;;;5033089;28;19913;-72
2022/03/07 01:42:37;;;;;;;;;;;-1.10;84.20;;;;;;5032883;28;19916;-72
2022/03/07 01:45:08;;;;;;;;;;;-1.10;84.10;;;;;;5032868;28;19909;-72
2022/03/07 01:47:34;;;;;;;;;;;-1.00;83.20;;;;;;5032996;28;19909;-72
2022/03/07 01:49:59;;;;;;;;;;;-1.00;83.70;;;;;;5032852;28;19909;-72
2022/03/07 01:52:25;;;;;;;;;;;-1.10;83.70;;;;;;5032906;28;19909;-72
2022/03/07 01:54:50;;;;;;;;;;;-1.10;83.40;;;;;;5032713;28;19917;-72
2022/03/07 01:57:15;;;;;;;;;;;-1.10;83.70;;;;;;5032783;28;20251;-72
2022/03/07 01:59:41;;;;;;;;;;;-1.20;84.30;;;;;;5032620;28;19982;-72
2022/03/07 02:02:07;;;;;;;;;;;-1.30;84.50;;;;;;5050522;28;19924;-72
2022/03/07 02:04:32;;;;;;;;;;;-1.30;84.70;;;;;;5033333;28;20008;-72
2022/03/07 02:06:57;;;;;;;;;;;-1.30;84.40;;;;;;5032734;28;19913;-72
2022/03/07 02:09:23;;;;;;;;;;;-1.30;84.60;;;;;;5032027;28;19952;-72
2022/03/07 02:11:48;;;;;;;;;;;-1.40;85.00;;;;;;5049209;28;20384;-72
2022/03/07 02:14:15;;;;;;;;;;;-1.40;85.00;;;;;;5051225;28;19909;-72
2022/03/07 02:16:41;;;;;;;;;;;-1.40;85.30;;;;;;5051545;28;20369;-72
2022/03/07 02:19:07;;;;;;;;;;;-1.50;84.90;;;;;;5051495;28;20443;-72
2022/03/07 02:21:36;;;;;;;;;;;-1.50;85.50;;;;;;5051509;28;19964;-72
2022/03/07 02:24:02;;;;;;;;;;;-1.50;85.70;;;;;;5049940;28;19908;-72
2022/03/07 02:26:28;;;;;;;;;;;-1.60;86.40;;;;;;5051405;28;19952;-72
2022/03/07 02:28:53;;;;;;;;;;;-1.70;86.00;;;;;;5050084;28;19974;-72
2022/03/07 02:31:20;;;;;;;;;;;-1.90;86.60;;;;;;5040703;28;19913;-72
2022/03/07 02:33:45;;;;;;;;;;;-1.90;86.80;;;;;;5041641;28;19952;-72
2022/03/07 02:36:11;;;;;;;;;;;-2.10;88.00;;;;;;5032342;28;19983;-72
2022/03/07 02:38:36;;;;;;;;;;;-2.10;87.40;;;;;;5032165;28;19955;-72
2022/03/07 02:41:02;;;;;;;;;;;-2.20;87.80;;;;;;5032128;28;19979;-72
2022/03/07 02:43:28;;;;;;;;;;;-2.50;88.40;;;;;;5031945;28;19909;-72
2022/03/07 02:45:55;;;;;;;;;;;-2.40;88.80;;;;;;5032129;28;20420;-72
2022/03/07 02:48:21;;;;;;;;;;;-2.50;88.90;;;;;;5032136;28;19916;-72
2022/03/07 02:50:46;;;;;;;;;;;-2.50;88.90;;;;;;5030830;28;19909;-72
2022/03/07 02:53:12;;;;;;;;;;;-2.60;89.40;;;;;;5031842;28;19913;-72
2022/03/07 02:55:37;;;;;;;;;;;-2.60;89.60;;;;;;5031975;28;19909;-72
2022/03/07 02:58:03;;;;;;;;;;;-2.60;89.40;;;;;;5032012;28;19983;-72
2022/03/07 03:00:29;;;;;;;;;;;-2.80;90.20;;;;;;5037019;28;19924;-72
2022/03/07 03:02:55;;;;;;;;;;;-2.80;89.60;;;;;;5036003;28;19909;-72
2022/03/07 03:05:21;;;;;;;;;;;-2.80;88.90;;;;;;5037113;28;20412;-72
2022/03/07 03:07:47;;;;;;;;;;;-2.70;89.50;;;;;;5031813;28;19909;-72
2022/03/07 03:10:13;;;;;;;;;;;-2.70;89.50;;;;;;5032346;28;19916;-72
2022/03/07 03:12:39;;;;;;;;;;;-2.90;89.80;;;;;;5031874;28;20011;-72
2022/03/07 03:15:05;;;;;;;;;;;-2.90;89.40;;;;;;5031503;28;19955;-72
2022/03/07 03:17:30;;;;;;;;;;;-2.90;89.30;;;;;;5051232;28;19963;-72
2022/03/07 03:19:56;;;;;;;;;;;-2.90;88.80;;;;;;5050866;28;19948;-72
2022/03/07 03:22:21;;;;;;;;;;;-2.80;87.70;;;;;;5050896;28;20470;-72
2022/03/07 03:24:47;;;;;;;;;;;-2.90;87.70;;;;;;5053147;28;19909;-72
2022/03/07 03:27:13;;;;;;;;;;;-2.90;88.20;;;;;;5054812;28;19996;-72
2022/03/07 03:29:38;;;;;;;;;;;-3.10;88.40;;;;;;5054916;28;19935;-72
2022/03/07 03:32:04;;;;;;;;;;;-3.00;88.20;;;;;;5050894;28;19909;-72
2022/03/07 03:34:30;;;;;;;;;;;-3.00;88.60;;;;;;5038556;28;19963;-72
2022/03/07 03:36:55;;;;;;;;;;;-3.20;89.40;;;;;;5035582;28;19909;-72
2022/03/07 03:39:21;;;;;;;;;;;-3.20;89.30;;;;;;5035214;28;19913;-72
2022/03/07 03:41:46;;;;;;;;;;;-3.50;90.00;;;;;;5035312;28;19996;-72
2022/03/07 03:44:12;;;;;;;;;;;-3.80;90.80;;;;;;5035178;28;19908;-72
2022/03/07 03:46:37;;;;;;;;;;;-3.90;91.10;;;;;;5035625;28;20358;-72
2022/03/07 03:49:03;;;;;;;;;;;-3.80;90.80;;;;;;5035543;28;19913;-72
2022/03/07 03:51:29;;;;;;;;;;;-3.80;91.00;;;;;;5035204;28;19917;-72
2022/03/07 03:53:54;;;;;;;;;;;-3.70;90.90;;;;;;5034846;28;19953;-72
2022/03/07 03:56:20;;;;;;;;;;;-3.70;90.60;;;;;;5035208;28;19963;-72
2022/03/07 03:58:45;;;;;;;;;;;-3.70;90.60;;;;;;5034932;28;19920;-72
2022/03/07 04:01:11;;;;;;;;;;;-3.70;90.80;;;;;;5039729;28;19917;-72
2022/03/07 04:03:36;;;;;;;;;;;-3.50;90.40;;;;;;5044449;28;19909;-72
2022/03/07 04:06:04;;;;;;;;;;;-3.70;90.70;;;;;;5049089;28;20317;-72
2022/03/07 04:08:30;;;;;;;;;;;-3.50;90.30;;;;;;5053858;28;19909;-72
2022/03/07 04:10:55;;;;;;;;;;;-3.50;90.30;;;;;;5053955;28;19908;-72
2022/03/07 04:13:21;;;;;;;;;;;-3.60;90.10;;;;;;5053584;28;19920;-72
2022/03/07 04:15:48;;;;;;;;;;;-3.90;90.70;;;;;;5053864;28;19935;-72
2022/03/07 04:18:14;;;;;;;;;;;-4.10;91.30;;;;;;5053776;28;19909;-72
2022/03/07 04:20:39;;;;;;;;;;;-3.90;90.90;;;;;;5053792;28;20297;-72
2022/03/07 04:23:05;;;;;;;;;;;-3.90;90.80;;;;;;5053322;28;19991;-73
2022/03/07 04:25:30;;;;;;;;;;;-3.80;90.60;;;;;;5053759;28;20362;-73
2022/03/07 04:27:56;;;;;;;;;;;-3.70;90.30;;;;;;5053720;28;20346;-73
2022/03/07 04:30:21;;;;;;;;;;;-3.50;89.90;;;;;;5052437;28;19909;-72
2022/03/07 04:32:47;;;;;;;;;;;-3.70;90.00;;;;;;5041976;28;19954;-73
2022/03/07 04:35:12;;;;;;;;;;;-3.90;90.80;;;;;;5033111;28;19909;-72
2022/03/07 04:37:40;;;;;;;;;;;-3.90;90.60;;;;;;5034252;28;19913;-72
2022/03/07 04:40:06;;;;;;;;;;;-4.10;91.00;;;;;;5034314;28;20007;-73
2022/03/07 04:42:32;;;;;;;;;;;-4.00;90.60;;;;;;5034127;28;19916;-72
2022/03/07 04:44:57;;;;;;;;;;;-4.20;91.00;;;;;;5034170;28;20330;-72
2022/03/07 04:47:23;;;;;;;;;;;-4.20;91.30;;;;;;5034284;28;19909;-73
2022/03/07 04:49:48;;;;;;;;;;;-4.30;91.10;;;;;;5034138;28;19920;-72
2022/03/07 04:52:14;;;;;;;;;;;-4.40;91.50;;;;;;5033902;28;19913;-73
2022/03/07 04:54:39;;;;;;;;;;;-4.40;91.90;;;;;;5033877;28;20420;-72
2022/03/07 04:57:05;;;;;;;;;;;-4.40;92.00;;;;;;5032707;28;20289;-73
2022/03/07 04:59:30;;;;;;;;;;;-4.30;92.20;;;;;;5034032;28;19917;-73
2022/03/07 05:01:56;;;;;;;;;;;-4.00;91.60;;;;;;5039810;28;20325;-73
2022/03/07 05:04:21;;;;;;;;;;;-3.90;91.10;;;;;;5039230;28;19909;-72
2022/03/07 05:06:47;;;;;;;;;;;-3.90;91.10;;;;;;5032556;28;20289;-72
2022/03/07 05:09:12;;;;;;;;;;;-4.10;91.20;;;;;;5034749;28;19935;-73
2022/03/07 05:11:38;;;;;;;;;;;-4.10;91.70;;;;;;5036548;28;19913;-72
2022/03/07 05:14:03;;;;;;;;;;;-4.10;91.70;;;;;;5033632;28;20023;-73
2022/03/07 05:16:29;;;;;;;;;;;-4.00;91.50;;;;;;5033698;28;19921;-73
2022/03/07 05:18:55;;;;;;;;;;;-4.10;91.80;;;;;;5033578;28;19935;-73
2022/03/07 05:21:20;;;;;;;;;;;-4.40;92.00;;;;;;5033519;28;19909;-72
2022/03/07 05:23:46;;;;;;;;;;;-4.30;92.40;;;;;;5033888;28;19955;-72
2022/03/07 05:26:11;;;;;;;;;;;-4.10;92.40;;;;;;5033577;28;20278;-72
2022/03/07 05:28:37;;;;;;;;;;;-4.30;92.40;;;;;;5033563;28;19913;-73
2022/03/07 05:31:02;;;;;;;;;;;-4.40;92.70;;;;;;5038169;28;20436;-73
2022/03/07 05:33:28;;;;;;;;;;;-4.30;92.50;;;;;;5044083;28;19920;-73
2022/03/07 05:35:53;;;;;;;;;;;-4.20;92.50;;;;;;5033354;28;20453;-73
2022/03/07 05:38:19;;;;;;;;;;;-4.00;91.80;;;;;;5033177;28;19963;-73
2022/03/07 05:40:44;;;;;;;;;;;-3.90;92.00;;;;;;5031937;28;20035;-73
2022/03/07 05:43:10;;;;;;;;;;;-4.00;91.90;;;;;;5032985;28;20004;-73
2022/03/07 05:45:35;;;;;;;;;;;-4.00;92.00;;;;;;5033259;28;19910;-73
2022/03/07 05:48:01;;;;;;;;;;;-4.10;92.00;;;;;;5032971;28;19913;-73
2022/03/07 05:50:26;;;;;;;;;;;-4.10;92.30;;;;;;5033100;28;19956;-73
2022/03/07 05:52:52;;;;;;;;;;;-4.10;92.40;;;;;;5032946;28;19967;-73
2022/03/07 05:55:17;;;;;;;;;;;-4.20;92.40;;;;;;5032637;28;20263;-73
2022/03/07 05:57:43;;;;;;;;;;;-4.10;92.30;;;;;;5032021;28;19909;-73
2022/03/07 06:00:09;;;;;;;;;;;-4.30;92.80;;;;;;5035254;28;20374;-73
2022/03/07 06:02:34;;;;;;;;;;;-4.30;93.10;;;;;;5040101;28;19916;-73
2022/03/07 06:05:00;;;;;;;;;;;-4.30;93.00;;;;;;5032993;28;20282;-73
2022/03/07 06:07:26;;;;;;;;;;;-4.40;92.90;;;;;;5035392;28;20286;-73
2022/03/07 06:09:51;;;;;;;;;;;-4.50;93.60;;;;;;5053946;28;19909;-73
2022/03/07 06:12:17;;;;;;;;;;;-4.50;93.40;;;;;;5052320;28;20007;-73
2022/03/07 06:14:42;;;;;;;;;;;-4.40;93.40;;;;;;5053384;28;19913;-72
2022/03/07 06:17:08;;;;;;;;;;;-4.30;93.10;;;;;;5052323;28;19925;-73
2022/03/07 06:19:33;;;;;;;;;;;-4.20;93.20;;;;;;5053689;28;19913;-73
2022/03/07 06:21:59;;;;;;;;;;;-4.00;92.50;;;;;;5051582;28;20262;-73
2022/03/07 06:24:26;;;;;;;;;;;-4.10;92.80;;;;;;5051278;28;20373;-73
2022/03/07 06:26:52;;;;;;;;;;;-4.00;93.10;;;;;;5051374;28;20354;-73
2022/03/07 06:29:17;;;;;;;;;;;-4.10;93.00;;;;;;5051465;28;19909;-73
2022/03/07 06:31:43;;;;;;;;;;;-4.10;92.90;;;;;;5047189;28;19908;-74
2022/03/07 06:34:08;;;;;;;;;;;-4.10;93.00;;;;;;5038607;28;19940;-73
2022/03/07 06:36:34;;;;;;;;;;;-4.10;92.90;;;;;;5030848;28;19912;-72
2022/03/07 06:38:59;;;;;;;;;;;-4.00;93.20;;;;;;5032275;28;19913;-72
2022/03/07 06:41:25;;;;;;;;;;;-3.80;92.80;;;;;;5032333;28;19917;-72
2022/03/07 06:43:50;;;;;;;;;;;-4.00;93.10;;;;;;5031993;28;20394;-73
2022/03/07 06:46:16;;;;;;;;;;;-4.10;93.60;;;;;;5031997;28;19909;-73
2022/03/07 06:48:41;;;;;;;;;;;-4.00;93.70;;;;;;5046321;28;19943;-73
2022/03/07 06:51:07;;;;;;;;;;;-3.90;93.40;;;;;;5047328;28;19952;-73
2022/03/07 06:53:32;;;;;;;;;;;-4.00;93.50;;;;;;5045354;28;19931;-73
2022/03/07 06:55:58;;;;;;;;;;;-4.10;93.90;;;;;;5041263;28;19967;-73
2022/03/07 06:58:23;;;;;;;;;;;-4.00;93.70;;;;;;5032984;28;20393;-72
2022/03/07 07:00:49;;;;;;;;;;;-3.80;93.70;;;;;;5042476;28;19913;-72
2022/03/07 07:03:14;;;;;;;;;;;-3.50;93.20;;;;;;5044940;28;20011;-73
2022/03/07 07:05:40;;;;;;;;;;;-3.40;92.50;;;;;;5039751;28;19909;-73
2022/03/07 07:08:05;;;;;;;;;;;-3.30;92.60;;;;;;5040188;28;19917;-73
2022/03/07 07:10:31;;;;;;;;;;;-3.20;92.30;;;;;;5040244;28;19921;-73
2022/03/07 07:12:56;;;;;;;;;;;-3.20;92.30;;;;;;5043399;28;19917;-73
2022/03/07 07:15:22;;;;;;;;;;;-3.10;92.40;;;;;;5038467;28;19916;-73
2022/03/07 07:17:47;;;;;;;;;;;-3.00;92.40;;;;;;5043610;28;19923;-73
2022/03/07 07:20:13;;;;;;;;;;;-2.90;92.00;;;;;;5037265;28;19924;-72
2022/03/07 07:22:39;;;;;;;;;;;-2.80;91.80;;;;;;5041143;28;19966;-72
2022/03/07 07:25:05;;;;;;;;;;;-2.70;91.70;;;;;;5043143;28;19909;-72
2022/03/07 07:27:31;;;;;;;;;;;-2.70;91.60;;;;;;5040120;28;19909;-73
2022/03/07 07:29:56;;;;;;;;;;;-2.60;91.40;;;;;;5052795;28;19967;-73
2022/03/07 07:32:22;;;;;;;;;;;-2.50;91.20;;;;;;5058464;28;20243;-72
2022/03/07 07:34:48;;;;;;;;;;;-2.40;90.80;;;;;;5055380;28;19908;-73
2022/03/07 07:37:13;;;;;;;;;;;-2.30;90.70;;;;;;5043552;28;19979;-72
2022/03/07 07:39:39;;;;;;;;;;;-2.20;90.50;;;;;;5041120;28;20293;-73
2022/03/07 07:42:05;;;;;;;;;;;-2.10;90.80;;;;;;5045281;28;19910;-73
2022/03/07 07:44:30;;;;;;;;;;;-2.00;90.30;;;;;;5034279;28;20321;-73
2022/03/07 07:46:56;;;;;;;;;;;-2.00;90.30;;;;;;5047070;28;19920;-73
2022/03/07 07:49:24;;;;;;;;;;;-1.80;90.40;;;;;;5034177;28;19909;-73
2022/03/07 07:51:51;;;;;;;;;;;-1.70;89.50;;;;;;5036199;28;19920;-72
2022/03/07 07:54:16;;;;;;;;;;;-1.70;90.00;;;;;;5044640;28;19909;-72
2022/03/07 07:56:42;;;;;;;;;;;-1.60;90.20;;;;;;5040333;28;19973;-72
2022/03/07 07:59:07;;;;;;;;;;;-1.50;89.50;;;;;;5044268;28;19916;-73
2022/03/07 08:01:33;;;;;;;;;;;-1.40;89.80;;;;;;5044921;28;19916;-72
2022/03/07 08:03:58;;;;;;;;;;;-1.40;89.10;;;;;;5046101;28;20334;-72
2022/03/07 08:06:24;;;;;;;;;;;-1.20;88.60;;;;;;5039481;28;20293;-72
2022/03/07 08:08:50;;;;;;;;;;;-1.20;87.80;;;;;;5034204;28;19914;-72
2022/03/07 08:11:16;;;;;;;;;;;-1.10;87.80;;;;;;5034011;28;19917;-72
2022/03/07 08:13:41;;;;;;;;;;;-1.00;87.70;;;;;;5033242;28;20289;-72
2022/03/07 08:16:07;;;;;;;;;;;-0.90;87.50;;;;;;5033342;28;19917;-72
2022/03/07 08:18:32;;;;;;;;;;;-0.70;87.70;;;;;;5033135;28;19916;-73
2022/03/07 08:21:00;;;;;;;;;;;1.00;84.70;;;;;;5033821;28;19920;-72
2022/03/07 08:23:25;;;;;;;;;;;2.50;78.10;;;;;;5033696;28;19909;-72
2022/03/07 08:25:51;;;;;;;;;;;3.20;73.80;;;;;;5034153;28;19916;-72
2022/03/07 08:28:16;;;;;;;;;;;3.70;72.20;;;;;;5033889;28;19909;-72
2022/03/07 08:30:42;;;;;;;;;;;3.60;70.00;;;;;;5036915;28;20469;-73
2022/03/07 08:33:07;;;;;;;;;;;3.80;70.00;;;;;;5037092;28;19962;-72
2022/03/07 08:35:33;;;;;;;;;;;3.40;68.40;;;;;;5037991;28;19986;-72
2022/03/07 08:37:58;;;;;;;;;;;4.30;68.40;;;;;;5033227;28;19924;-73
2022/03/07 08:40:24;;;;;;;;;;;5.50;65.10;;;;;;5043854;28;20427;-72
2022/03/07 08:42:50;;;;;;;;;;;4.20;66.20;;;;;;5033438;28;19916;-73
2022/03/07 08:45:15;;;;;;;;;;;4.70;66.00;;;;;;5033308;28;19909;-72
2022/03/07 08:47:41;;;;;;;;;;;3.70;64.80;;;;;;5033691;28;19909;-73
2022/03/07 08:50:08;;;;;;;;;;;5.20;63.60;;;;;;5034329;28;19905;-73
2022/03/07 08:52:34;;;;;;;;;;;5.30;63.30;;;;;;5037069;28;19920;-73
2022/03/07 08:55:00;;;;;;;;;;;5.30;62.20;;;;;;5034236;28;19913;-73
2022/03/07 08:57:25;;;;;;;;;;;5.50;60.30;;;;;;5033454;28;19909;-72
2022/03/07 08:59:51;;;;;;;;;;;5.20;60.00;;;;;;5033884;28;20365;-73
2022/03/07 09:02:16;;;;;;;;;;;5.20;60.90;;;;;;5047418;28;20348;-73
2022/03/07 09:04:42;;;;;;;;;;;6.40;59.50;;;;;;5042059;28;19908;-73
2022/03/07 09:07:07;;;;;;;;;;;6.30;59.90;;;;;;5044169;28;19910;-73
2022/03/07 09:09:33;;;;;;;;;;;6.80;58.60;;;;;;5033815;28;20290;-73
2022/03/07 09:11:59;;;;;;;;;;;6.90;58.30;;;;;;5043875;28;19913;-73
2022/03/07 09:14:25;;;;;;;;;;;7.40;58.70;;;;;;5050765;28;19975;-73
2022/03/07 09:16:50;;;;;;;;;;;8.10;56.20;;;;;;5033626;28;20477;-73
2022/03/07 09:19:16;;;;;;;;;;;8.20;56.10;;;;;;5038316;28;19920;-73
2022/03/07 09:21:41;;;;;;;;;;;8.50;54.50;;;;;;5032884;28;20022;-72
2022/03/07 09:24:07;;;;;;;;;;;6.10;55.40;;;;;;5033164;28;19970;-73
2022/03/07 09:26:32;;;;;;;;;;;7.20;56.40;;;;;;5033424;28;19920;-73
2022/03/07 09:28:58;;;;;;;;;;;8.70;54.80;;;;;;5033430;28;19920;-73
2022/03/07 09:31:23;;;;;;;;;;;9.30;53.70;;;;;;5032943;28;19916;-73
2022/03/07 09:33:49;;;;;;;;;;;8.20;53.80;;;;;;5031712;28;19909;-73
2022/03/07 09:36:15;;;;;;;;;;;8.70;54.50;;;;;;5033264;28;20018;-73
2022/03/07 09:38:40;;;;;;;;;;;8.70;52.00;;;;;;5039236;28;20330;-73
2022/03/07 09:41:06;;;;;;;;;;;9.40;51.20;;;;;;5050382;28;19916;-73
2022/03/07 09:43:32;;;;;;;;;;;7.40;54.00;;;;;;5045015;28;19967;-73
2022/03/07 09:45:57;;;;;;;;;;;7.80;53.60;;;;;;5032816;28;19909;-73
2022/03/07 09:48:24;;;;;;;;;;;9.50;52.10;;;;;;5032947;28;19982;-73
2022/03/07 09:50:49;;;;;;;;;;;9.50;50.40;;;;;;5037305;28;20537;-73
2022/03/07 09:53:16;;;;;;;;;;;9.70;49.40;;;;;;5040511;28;19948;-73
2022/03/07 09:55:42;;;;;;;;;;;9.10;47.60;;;;;;5032704;28;20003;-73
2022/03/07 09:58:08;;;;;;;;;;;5.40;56.00;;;;;;5033293;28;19996;-73
2022/03/07 10:00:34;;;;;;;;;;;8.10;53.50;;;;;;5032535;28;20301;-73
2022/03/07 10:03:02;;;;;;;;;;;10.00;48.30;;;;;;5032629;28;19913;-73
2022/03/07 10:05:29;;;;;;;;;;;9.50;50.90;;;;;;5032494;28;19909;-73
2022/03/07 10:07:55;;;;;;;;;;;8.20;51.50;;;;;;5038456;28;20393;-73
2022/03/07 10:10:21;;;;;;;;;;;6.70;55.30;;;;;;5032744;28;19910;-73
2022/03/07 10:12:50;;;;;;;;;;;7.10;53.80;;;;;;5043850;28;19909;-73
2022/03/07 10:15:20;;;;;;;;;;;8.60;51.20;;;;;;5041341;28;19908;-73
2022/03/07 10:17:47;;;;;;;;;;;8.30;51.10;;;;;;5032528;28;19924;-73
2022/03/07 10:20:12;;;;;;;;;;;9.00;51.20;;;;;;5032358;28;19913;-73
2022/03/07 10:22:45;;;;;;;;;;;9.00;51.70;;;;;;5032361;28;19963;-73
2022/03/07 10:25:11;;;;;;;;;;;7.40;50.40;;;;;;5032083;28;19913;-73
2022/03/07 10:27:38;;;;;;;;;;;8.40;53.60;;;;;;5032199;28;19965;-73
2022/03/07 10:30:08;;;;;;;;;;;9.80;50.00;;;;;;5032499;28;19909;-73
2022/03/07 10:32:33;;;;;;;;;;;12.10;45.10;;;;;;5032116;28;19916;-73
2022/03/07 10:34:59;;;;;;;;;;;11.60;44.10;;;;;;5031442;28;20293;-73
2022/03/07 10:37:34;;;;;;;;;;;11.80;45.10;;;;;;5032185;28;19909;-74
2022/03/07 10:40:00;;;;;;;;;;;9.40;49.20;;;;;;5037479;28;19917;-74
2022/03/07 10:42:25;;;;;;;;;;;10.40;48.90;;;;;;5039415;28;20362;-73
2022/03/07 10:44:51;;;;;;;;;;;12.10;45.40;;;;;;5046196;28;19917;-73
2022/03/07 10:47:18;;;;;;;;;;;12.60;45.30;;;;;;5042318;28;19932;-73
2022/03/07 10:49:47;;;;;;;;;;;11.90;45.50;;;;;;5040640;28;20319;-74
2022/03/07 10:52:12;;;;;;;;;;;13.30;43.10;;;;;;5041711;28;19927;-74
2022/03/07 10:54:38;;;;;;;;;;;12.70;42.90;;;;;;5039110;28;19909;-73
2022/03/07 10:57:03;;;;;;;;;;;12.50;45.00;;;;;;5036622;28;19917;-74
2022/03/07 10:59:30;;;;;;;;;;;13.00;43.90;;;;;;5031920;28;19923;-73
2022/03/07 11:02:04;;;;;;;;;;;12.10;45.60;;;;;;5035386;28;20397;-74
2022/03/07 11:04:30;;;;;;;;;;;12.80;45.60;;;;;;5036397;28;20006;-75
2022/03/07 11:06:56;;;;;;;;;;;13.10;43.10;;;;;;5036885;28;19948;-74
2022/03/07 11:09:21;;;;;;;;;;;6.60;49.90;;;;;;5039106;28;20319;-73
2022/03/07 11:11:47;;;;;;;;;;;5.20;57.40;;;;;;5031320;28;20448;-73
2022/03/07 11:14:13;;;;;;;;;;;4.60;60.40;;;;;;5037418;28;19920;-73
2022/03/07 11:16:39;;;;;;;;;;;6.10;57.00;;;;;;5042002;28;19964;-74
2022/03/07 11:19:06;;;;;;;;;;;5.70;56.40;;;;;;5031228;28;19917;-73
2022/03/07 11:21:32;;;;;;;;;;;5.70;59.60;;;;;;5029247;28;19917;-73
2022/03/07 11:23:57;;;;;;;;;;;6.70;56.30;;;;;;5029947;28;19932;-74
2022/03/07 11:26:23;;;;;;;;;;;9.30;50.90;;;;;;5043471;28;19913;-74
2022/03/07 11:28:52;;;;;;;;;;;9.70;48.50;;;;;;5033730;28;19917;-73
2022/03/07 11:31:21;;;;;;;;;;;5.10;55.30;;;;;;5039768;28;19913;-74
2022/03/07 11:33:51;;;;;;;;;;;4.70;60.70;;;;;;5030615;28;19913;-73
2022/03/07 11:36:17;;;;;;;;;;;5.20;60.30;;;;;;5031088;28;19909;-74
2022/03/07 11:38:53;;;;;;;;;;;5.00;59.30;;;;;;5041638;28;20084;-73
2022/03/07 11:41:24;;;;;;;;;;;3.80;61.40;;;;;;5036174;28;19920;-73
2022/03/07 11:43:51;;;;;;;;;;;5.80;60.00;;;;;;5030442;28;19967;-73
2022/03/07 11:46:20;;;;;;;;;;;8.50;51.70;;;;;;5035264;28;19988;-74
2022/03/07 11:48:47;;;;;;;;;;;8.20;53.40;;;;;;5035286;28;20011;-73
2022/03/07 11:51:20;;;;;;;;;;;5.60;57.40;;;;;;5038713;28;19959;-73
2022/03/07 11:53:47;;;;;;;;;;;4.30;59.90;;;;;;5046535;28;19910;-73
2022/03/07 11:56:16;;;;;;;;;;;6.50;57.60;;;;;;5045822;28;19948;-73
2022/03/07 11:58:46;;;;;;;;;;;8.30;51.00;;;;;;5053737;28;19909;-74
2022/03/07 12:01:12;;;;;;;;;;;6.80;55.20;;;;;;5053631;28;19988;-73
2022/03/07 12:03:37;;;;;;;;;;;5.40;55.60;;;;;;5052902;28;19952;-73
2022/03/07 12:06:04;;;;;;;;;;;4.40;59.40;;;;;;5053413;28;19954;-73
2022/03/07 12:08:30;;;;;;;;;;;4.10;59.30;;;;;;5049823;28;19913;-73
2022/03/07 12:10:55;;;;;;;;;;;3.70;60.00;;;;;;5034547;28;19909;-74
2022/03/07 12:13:21;;;;;;;;;;;4.20;60.60;;;;;;5039620;28;19909;-73
2022/03/07 12:15:48;;;;;;;;;;;3.80;60.60;;;;;;5048158;28;20381;-73
2022/03/07 12:18:15;;;;;;;;;;;3.80;62.10;;;;;;5037204;28;19913;-73
2022/03/07 12:20:46;;;;;;;;;;;4.20;61.40;;;;;;5034563;28;19917;-73
2022/03/07 12:23:12;;;;;;;;;;;4.50;61.10;;;;;;5033877;28;19917;-73
2022/03/07 12:25:37;;;;;;;;;;;4.80;59.20;;;;;;5034034;28;19909;-74
2022/03/07 12:28:03;;;;;;;;;;;5.00;59.30;;;;;;5033797;28;19909;-73
2022/03/07 12:30:29;;;;;;;;;;;4.60;60.10;;;;;;5033997;28;19923;-73
2022/03/07 12:32:54;;;;;;;;;;;4.50;59.50;;;;;;5033806;28;19909;-73
2022/03/07 12:35:20;;;;;;;;;;;4.60;59.50;;;;;;5033698;28;19913;-73
2022/03/07 12:37:45;;;;;;;;;;;3.90;58.50;;;;;;5032661;28;19948;-73
2022/03/07 12:40:11;;;;;;;;;;;3.60;62.70;;;;;;5040548;28;20321;-73
2022/03/07 12:42:38;;;;;;;;;;;3.10;60.80;;;;;;5033636;28;19952;-73
2022/03/07 12:45:05;;;;;;;;;;;3.10;62.10;;;;;;5040088;28;20317;-73
2022/03/07 12:47:32;;;;;;;;;;;3.70;62.00;;;;;;5045660;28;19952;-73
2022/03/07 12:49:58;;;;;;;;;;;3.50;60.50;;;;;;5034395;28;19991;-73
2022/03/07 12:52:24;;;;;;;;;;;3.60;62.30;;;;;;5045822;28;19909;-73
2022/03/07 12:54:49;;;;;;;;;;;3.50;61.30;;;;;;5032687;28;20440;-73
2022/03/07 12:57:15;;;;;;;;;;;3.70;61.40;;;;;;5032840;28;19932;-73
2022/03/07 12:59:41;;;;;;;;;;;3.50;61.30;;;;;;5032109;28;19963;-72
2022/03/07 13:02:06;;;;;;;;;;;3.60;61.30;;;;;;5038556;28;20019;-73
2022/03/07 13:04:32;;;;;;;;;;;3.20;60.20;;;;;;5032887;28;20362;-72
2022/03/07 13:07:06;;;;;;;;;;;3.30;60.70;;;;;;5033191;28;20306;-72
2022/03/07 13:09:32;;;;;;;;;;;3.30;60.50;;;;;;5046547;28;19917;-72
2022/03/07 13:12:00;;;;;;;;;;;3.10;61.20;;;;;;5044789;28;20332;-72
2022/03/07 13:14:30;;;;;;;;;;;3.20;62.00;;;;;;5041481;28;19955;-72
2022/03/07 13:17:03;;;;;;;;;;;3.20;60.90;;;;;;5035966;28;19916;-72
2022/03/07 13:19:29;;;;;;;;;;;3.30;61.80;;;;;;5032844;28;20031;-72
2022/03/07 13:21:54;;;;;;;;;;;3.10;61.30;;;;;;5032855;28;19996;-72
2022/03/07 13:24:25;;;;;;;;;;;3.10;62.00;;;;;;5031310;28;20611;-72
2022/03/07 13:27:03;;;;;;;;;;;3.00;61.20;;;;;;5032714;28;20269;-72
2022/03/07 13:29:29;;;;;;;;;;;2.90;61.50;;;;;;5032449;28;20358;-72
2022/03/07 13:31:59;;;;;;;;;;;3.00;61.40;;;;;;5031707;28;20007;-72
2022/03/07 13:34:25;;;;;;;;;;;3.00;61.40;;;;;;5032559;28;20389;-72
2022/03/07 13:36:51;;;;;;;;;;;3.10;61.80;;;;;;5031769;28;19920;-72
2022/03/07 13:39:20;;;;;;;;;;;3.00;62.10;;;;;;5037944;28;19943;-73
2022/03/07 13:41:49;;;;;;;;;;;3.00;60.90;;;;;;5038020;28;20330;-72
2022/03/07 13:44:15;;;;;;;;;;;3.00;62.80;;;;;;5035980;28;19913;-72
2022/03/07 13:46:50;;;;;;;;;;;3.00;61.30;;;;;;5043596;28;19917;-72
2022/03/07 13:49:15;;;;;;;;;;;3.10;62.60;;;;;;5032541;28;20271;-73
2022/03/07 13:51:41;;;;;;;;;;;3.20;62.20;;;;;;5037622;28;19942;-73
2022/03/07 13:54:06;;;;;;;;;;;3.10;61.80;;;;;;5039110;28;19917;-72
2022/03/07 13:56:32;;;;;;;;;;;3.10;61.60;;;;;;5032448;28;19915;-72
2022/03/07 13:58:57;;;;;;;;;;;3.10;62.70;;;;;;5032112;28;20306;-72
2022/03/07 14:01:28;;;;;;;;;;;3.10;61.60;;;;;;5032205;28;19909;-72
2022/03/07 14:03:54;;;;;;;;;;;3.10;62.30;;;;;;5031673;28;20326;-73
2022/03/07 14:06:19;;;;;;;;;;;3.20;61.80;;;;;;5032026;28;19928;-72
2022/03/07 14:08:45;;;;;;;;;;;3.00;62.50;;;;;;5031823;28;19909;-72
2022/03/07 14:11:13;;;;;;;;;;;2.90;62.90;;;;;;5037724;28;20000;-72
2022/03/07 14:13:43;;;;;;;;;;;2.90;62.60;;;;;;5035030;28;20003;-72